Time;durP1;ratioP1;P1;durP2;ratioP2;P2;SDS_P1;SDS_P2;PMS_P1;PMS_P2;Temp;Humidity;BMP_temperature;BMP_pressure;BME280_temperature;BME280_humidity;BME280_pressure;Samples;Min_cycle;Max_cycle;Signal;HPM_P1;HPM_P2
2022/08/13 00:01:19;;;;;;;2.10;2.10;;;25.60;60.80;;;;;;5067742;28;43937;-73
2022/08/13 00:03:52;;;;;;;1.90;1.90;;;25.70;60.50;;;;;;5067466;28;43959;-73
2022/08/13 00:09:23;;;;;;;1.97;1.97;;;25.60;60.60;;;;;;5067422;28;43886;-74
2022/08/13 00:14:59;;;;;;;2.00;2.00;;;25.50;61.20;;;;;;5065791;28;45722;-74
2022/08/13 00:17:33;;;;;;;1.97;1.97;;;25.50;61.40;;;;;;5067325;28;44065;-73
2022/08/13 00:20:23;;;;;;;1.90;1.90;;;25.40;61.80;;;;;;5067301;28;43943;-74
2022/08/13 00:22:55;;;;;;;2.10;2.10;;;25.40;61.90;;;;;;5061623;28;43335;-73
2022/08/13 00:25:29;;;;;;;1.80;1.80;;;25.40;61.70;;;;;;5067262;28;43928;-73
2022/08/13 00:28:10;;;;;;;1.80;1.80;;;25.50;61.40;;;;;;5067093;28;43440;-73
2022/08/13 00:30:38;;;;;;;1.90;1.90;;;25.60;60.90;;;;;;5067080;28;43969;-73
2022/08/13 00:33:12;;;;;;;1.93;1.93;;;25.60;60.60;;;;;;5067586;28;44023;-73
2022/08/13 00:35:43;;;;;;;2.10;2.10;;;25.60;60.50;;;;;;5066959;28;44710;-73
2022/08/13 00:38:13;;;;;;;1.77;1.77;;;25.60;61.00;;;;;;5065328;28;44760;-74
2022/08/13 00:40:42;;;;;;;1.80;1.80;;;25.50;61.30;;;;;;5064857;28;44034;-73
2022/08/13 00:43:24;;;;;;;1.83;1.83;;;25.50;61.50;;;;;;5066095;28;43849;-73
2022/08/13 00:45:54;;;;;;;1.90;1.90;;;25.50;61.60;;;;;;5058768;28;46143;-72
2022/08/13 00:51:22;;;;;;;1.90;1.90;;;25.40;61.90;;;;;;5066786;28;43388;-74
2022/08/13 00:54:14;;;;;;;1.98;1.98;;;25.40;61.90;;;;;;5067316;28;43997;-73
2022/08/13 00:56:44;;;;;;;1.90;1.90;;;25.50;62.30;;;;;;5066772;28;43988;-74
2022/08/13 00:59:13;;;;;;;2.07;1.97;;;25.60;61.10;;;;;;5065294;28;45162;-74
2022/08/13 01:01:43;;;;;;;1.70;1.70;;;25.60;60.80;;;;;;5067024;28;43833;-74
2022/08/13 01:04:19;;;;;;;1.60;1.60;;;25.60;60.70;;;;;;5067174;28;43445;-74
2022/08/13 01:06:55;;;;;;;1.70;1.70;;;25.60;61.00;;;;;;5064255;28;46093;-74
2022/08/13 01:09:28;;;;;;;1.70;1.70;;;25.50;61.30;;;;;;5066287;28;43974;-73
2022/08/13 01:12:16;;;;;;;1.70;1.70;;;25.50;61.40;;;;;;5066643;28;43997;-73
2022/08/13 01:14:44;;;;;;;1.70;1.70;;;25.40;61.60;;;;;;5065573;28;43853;-73
2022/08/13 01:17:15;;;;;;;1.60;1.60;;;25.40;61.80;;;;;;5066427;28;43996;-74
2022/08/13 01:19:44;;;;;;;1.70;1.70;;;25.30;62.00;;;;;;5066400;28;43826;-74
2022/08/13 01:22:21;;;;;;;1.80;1.80;;;25.30;62.00;;;;;;5066613;28;43887;-74
2022/08/13 01:25:09;;;;;;;1.63;1.63;;;25.30;62.20;;;;;;5066846;28;44020;-75
2022/08/13 01:27:41;;;;;;;1.70;1.70;;;25.30;62.20;;;;;;5066467;28;43817;-73
2022/08/13 01:30:14;;;;;;;1.63;1.63;;;25.30;62.50;;;;;;5066452;28;44022;-73
2022/08/13 01:32:43;;;;;;;1.63;1.63;;;25.30;62.30;;;;;;5059995;28;43992;-75
2022/08/13 01:35:25;;;;;;;1.70;1.70;;;25.30;61.90;;;;;;5060705;28;44194;-73
2022/08/13 01:37:54;;;;;;;1.70;1.70;;;25.50;61.60;;;;;;5066329;28;44091;-74
2022/08/13 01:40:26;;;;;;;1.60;1.60;;;25.60;61.10;;;;;;5065774;28;43441;-74
2022/08/13 01:42:55;;;;;;;1.70;1.70;;;25.60;60.80;;;;;;5066378;28;44034;-73
2022/08/13 01:45:23;;;;;;;1.83;1.83;;;25.60;60.50;;;;;;5065116;28;43471;-73
2022/08/13 01:50:47;;;;;;;1.67;1.67;;;25.50;61.30;;;;;;5066017;28;43391;-73
2022/08/13 01:53:20;;;;;;;1.40;1.40;;;25.50;61.40;;;;;;5059986;28;43822;-74
2022/08/13 01:55:52;;;;;;;1.60;1.60;;;25.40;61.50;;;;;;5066680;28;43501;-73
2022/08/13 01:58:39;;;;;;;1.70;1.70;;;25.40;62.60;;;;;;5066173;28;44016;-73
2022/08/13 02:01:27;;;;;;;1.50;1.50;;;25.30;61.80;;;;;;5066087;28;43805;-73
2022/08/13 02:04:13;;;;;;;1.50;1.50;;;25.30;61.90;;;;;;5066041;28;43816;-73
2022/08/13 02:06:49;;;;;;;1.70;1.70;;;25.30;62.20;;;;;;5066397;28;44097;-73
2022/08/13 02:09:23;;;;;;;1.60;1.60;;;25.30;62.40;;;;;;5065657;28;43973;-72
2022/08/13 02:12:13;;;;;;;1.50;1.50;;;25.30;62.30;;;;;;5064243;28;44913;-74
2022/08/13 02:15:04;;;;;;;1.50;1.50;;;25.30;62.00;;;;;;5062535;28;44004;-74
2022/08/13 02:17:38;;;;;;;1.47;1.47;;;25.40;61.70;;;;;;5066630;28;43948;-73
2022/08/13 02:20:26;;;;;;;1.67;1.67;;;25.50;61.00;;;;;;5067606;28;45859;-74
2022/08/13 02:22:57;;;;;;;1.43;1.43;;;25.60;60.80;;;;;;5068995;28;43936;-74
2022/08/13 02:25:27;;;;;;;1.57;1.57;;;25.60;60.40;;;;;;5069265;28;43980;-74
2022/08/13 02:27:59;;;;;;;1.60;1.60;;;25.60;60.90;;;;;;5069542;28;43961;-73
2022/08/13 02:30:29;;;;;;;1.67;1.67;;;25.50;61.10;;;;;;5069258;28;43616;-74
2022/08/13 02:33:00;;;;;;;1.57;1.57;;;25.50;61.30;;;;;;5068914;28;43478;-73
2022/08/13 02:35:28;;;;;;;1.53;1.53;;;25.50;61.40;;;;;;5069352;28;43863;-73
2022/08/13 02:38:14;;;;;;;1.40;1.40;;;25.40;62.40;;;;;;5069182;28;43296;-74
2022/08/13 02:43:42;;;;;;;1.50;1.50;;;25.30;61.80;;;;;;5068916;28;44070;-73
2022/08/13 02:46:26;;;;;;;1.60;1.60;;;25.50;61.40;;;;;;5069032;28;43848;-73
2022/08/13 02:48:57;;;;;;;1.50;1.50;;;25.60;61.00;;;;;;5069287;28;43906;-74
2022/08/13 02:51:25;;;;;;;1.48;1.48;;;25.70;61.40;;;;;;5068607;28;44045;-73
2022/08/13 02:54:16;;;;;;;1.40;1.40;;;25.70;60.30;;;;;;5068569;28;43947;-74
2022/08/13 02:56:48;;;;;;;1.58;1.58;;;25.60;60.60;;;;;;5068766;28;43949;-74
2022/08/13 02:59:16;;;;;;;1.50;1.50;;;25.50;61.90;;;;;;5069087;28;43988;-73
2022/08/13 03:02:04;;;;;;;1.50;1.50;;;25.50;61.90;;;;;;5068624;28;43970;-73
2022/08/13 03:04:33;;;;;;;1.40;1.40;;;25.40;61.30;;;;;;5068519;28;44198;-73
2022/08/13 03:07:01;;;;;;;1.53;1.53;;;25.40;62.30;;;;;;5068537;28;44087;-74
2022/08/13 03:09:29;;;;;;;1.60;1.60;;;25.30;61.80;;;;;;5068917;28;44150;-74
2022/08/13 03:12:00;;;;;;;1.43;1.43;;;25.30;61.80;;;;;;5068062;28;44016;-73
2022/08/13 03:14:30;;;;;;;1.35;1.35;;;25.40;61.60;;;;;;5066814;28;44624;-74
2022/08/13 03:16:58;;;;;;;1.37;1.37;;;25.50;61.20;;;;;;5068414;28;43997;-74
2022/08/13 03:19:26;;;;;;;1.40;1.40;;;25.60;60.80;;;;;;5068794;28;43994;-73
2022/08/13 03:21:54;;;;;;;1.40;1.40;;;25.60;60.40;;;;;;5068013;28;44028;-73
2022/08/13 03:24:22;;;;;;;1.47;1.47;;;25.50;60.50;;;;;;5068169;28;43932;-74
2022/08/13 03:27:01;;;;;;;1.43;1.43;;;25.50;61.10;;;;;;5068363;28;44030;-74
2022/08/13 03:29:29;;;;;;;1.40;1.40;;;25.40;61.20;;;;;;5061913;28;44027;-73
2022/08/13 03:32:17;;;;;;;1.53;1.53;;;25.40;61.20;;;;;;5067764;28;44013;-74
2022/08/13 03:34:59;;;;;;;1.40;1.40;;;25.40;61.70;;;;;;5068024;28;43333;-73
2022/08/13 03:37:42;;;;;;;1.30;1.30;;;25.30;62.00;;;;;;5067932;28;43991;-72
2022/08/13 03:40:13;;;;;;;1.30;1.30;;;25.30;61.80;;;;;;5061967;28;44029;-74
2022/08/13 03:42:48;;;;;;;1.30;1.30;;;25.30;61.50;;;;;;5067700;28;44938;-73
2022/08/13 03:45:22;;;;;;;1.30;1.30;;;25.50;61.20;;;;;;5067830;28;43935;-74
2022/08/13 03:47:51;;;;;;;1.30;1.30;;;25.60;60.80;;;;;;5067616;28;43947;-74
2022/08/13 03:50:20;;;;;;;1.30;1.30;;;25.60;60.30;;;;;;5068150;28;43522;-73
2022/08/13 03:52:51;;;;;;;1.30;1.30;;;25.60;60.70;;;;;;5067453;28;43890;-74
2022/08/13 03:55:22;;;;;;;1.40;1.40;;;25.50;61.00;;;;;;5067831;28;44062;-73
2022/08/13 03:57:51;;;;;;;1.33;1.33;;;25.50;61.20;;;;;;5067692;28;43369;-73
2022/08/13 04:00:32;;;;;;;1.20;1.20;;;25.40;61.30;;;;;;5067991;28;43998;-74
2022/08/13 04:03:02;;;;;;;1.20;1.20;;;25.40;61.40;;;;;;5067627;28;43627;-73
2022/08/13 04:05:30;;;;;;;1.20;1.20;;;25.30;61.40;;;;;;5067450;28;43859;-73
2022/08/13 04:08:18;;;;;;;1.33;1.33;;;25.30;61.90;;;;;;5067561;28;44007;-73
2022/08/13 04:10:46;;;;;;;1.20;1.20;;;25.30;61.70;;;;;;5067780;28;43451;-74
2022/08/13 04:13:23;;;;;;;1.23;1.23;;;25.40;61.40;;;;;;5067427;28;44060;-74
2022/08/13 04:16:12;;;;;;;1.30;1.30;;;25.50;61.00;;;;;;5065894;28;44644;-73
2022/08/13 04:18:44;;;;;;;1.37;1.37;;;25.50;60.50;;;;;;5058627;28;43937;-73
2022/08/13 04:21:14;;;;;;;1.20;1.20;;;25.60;60.80;;;;;;5067660;28;43462;-73
2022/08/13 04:23:50;;;;;;;1.30;1.30;;;25.50;60.70;;;;;;5061861;28;44094;-74
2022/08/13 04:26:24;;;;;;;1.20;1.20;;;25.40;61.20;;;;;;5067481;28;43426;-73
2022/08/13 04:29:04;;;;;;;1.17;1.17;;;25.40;61.30;;;;;;5067499;28;44038;-73
2022/08/13 04:31:32;;;;;;;1.20;1.20;;;25.40;61.30;;;;;;5067803;28;43872;-73
2022/08/13 04:34:17;;;;;;;1.07;1.07;;;25.40;61.30;;;;;;5067093;28;43908;-74
2022/08/13 04:37:05;;;;;;;1.43;1.43;;;25.30;61.80;;;;;;5067341;28;43891;-72
2022/08/13 04:39:36;;;;;;;1.40;1.40;;;25.30;61.80;;;;;;5067463;28;43539;-73
2022/08/13 04:42:24;;;;;;;1.20;1.20;;;25.20;61.70;;;;;;5066481;28;43995;-74
2022/08/13 04:45:06;;;;;;;1.20;1.20;;;25.20;61.70;;;;;;5067303;28;44008;-74
2022/08/13 04:47:40;;;;;;;1.20;1.20;;;25.20;62.40;;;;;;5061396;28;43979;-73
2022/08/13 04:50:08;;;;;;;1.13;1.13;;;25.20;62.00;;;;;;5067370;28;43948;-73
2022/08/13 04:52:38;;;;;;;1.20;1.20;;;25.30;61.80;;;;;;5067518;28;43883;-73
2022/08/13 04:55:07;;;;;;;1.30;1.30;;;25.40;61.40;;;;;;5065594;28;45722;-73
2022/08/13 04:57:41;;;;;;;1.20;1.20;;;25.50;60.80;;;;;;5067021;28;43393;-73
2022/08/13 05:00:24;;;;;;;1.30;1.30;;;25.60;60.40;;;;;;5067118;28;43874;-74
2022/08/13 05:02:52;;;;;;;1.20;1.20;;;25.60;60.70;;;;;;5067136;28;43929;-73
2022/08/13 05:05:24;;;;;;;1.50;1.50;;;25.50;60.80;;;;;;5065088;28;46753;-74
2022/08/13 05:07:54;;;;;;;1.20;1.20;;;25.40;61.00;;;;;;5066575;28;44060;-73
2022/08/13 05:10:25;;;;;;;1.40;1.40;;;25.40;61.20;;;;;;5066806;28;43928;-73
2022/08/13 05:13:00;;;;;;;1.17;1.17;;;25.30;61.10;;;;;;5067142;28;43998;-74
2022/08/13 05:15:39;;;;;;;1.20;1.20;;;25.30;61.40;;;;;;5066765;28;43943;-74
2022/08/13 05:18:15;;;;;;;1.30;1.30;;;25.30;61.90;;;;;;5066669;28;43823;-75
2022/08/13 05:20:50;;;;;;;1.20;1.20;;;25.30;61.80;;;;;;5066702;28;43376;-74
2022/08/13 05:23:21;;;;;;;1.20;1.20;;;25.30;61.70;;;;;;5066902;28;43997;-73
2022/08/13 05:26:10;;;;;;;1.40;1.40;;;25.20;61.90;;;;;;5066578;28;43833;-73
2022/08/13 05:29:05;;;;;;;1.43;1.30;;;25.20;62.10;;;;;;5065031;28;44737;-72
2022/08/13 05:31:35;;;;;;;1.20;1.20;;;25.20;61.70;;;;;;5065152;28;43988;-73
2022/08/13 05:34:23;;;;;;;1.23;1.23;;;25.30;61.40;;;;;;5065386;28;43899;-73
2022/08/13 05:36:52;;;;;;;1.20;1.20;;;25.50;60.70;;;;;;5066591;28;44854;-73
2022/08/13 05:39:41;;;;;;;1.20;1.20;;;25.60;60.50;;;;;;5062497;28;43932;-73
2022/08/13 05:42:18;;;;;;;1.03;1.03;;;25.50;60.40;;;;;;5064551;28;44032;-73
2022/08/13 05:44:54;;;;;;;1.27;1.27;;;25.50;60.50;;;;;;5066840;28;43930;-74
2022/08/13 05:47:23;;;;;;;1.30;1.30;;;25.40;60.90;;;;;;5066245;28;43979;-73
2022/08/13 05:49:52;;;;;;;1.20;1.20;;;25.40;61.10;;;;;;5066220;28;43419;-73
2022/08/13 05:52:26;;;;;;;1.30;1.30;;;25.30;61.00;;;;;;5067619;28;43961;-73
2022/08/13 05:55:11;;;;;;;1.40;1.40;;;25.30;61.10;;;;;;5070268;28;44058;-73
2022/08/13 05:57:59;;;;;;;1.23;1.23;;;25.30;61.80;;;;;;5068274;28;45972;-73
2022/08/13 06:03:27;;;;;;;1.23;1.23;;;25.30;61.30;;;;;;5069719;28;44007;-73
2022/08/13 06:06:16;;;;;;;1.10;1.10;;;25.40;60.70;;;;;;5069953;28;43907;-74
2022/08/13 06:08:56;;;;;;;1.20;1.20;;;25.50;60.50;;;;;;5067984;28;45422;-72
2022/08/13 06:11:26;;;;;;;1.20;1.20;;;25.50;60.00;;;;;;5063306;28;44007;-73
2022/08/13 06:14:18;;;;;;;1.03;1.03;;;25.40;60.10;;;;;;5069522;28;43967;-73
2022/08/13 06:16:46;;;;;;;1.07;1.00;;;25.40;60.40;;;;;;5069771;28;43977;-73
2022/08/13 06:19:23;;;;;;;1.20;1.20;;;25.30;60.60;;;;;;5067769;28;45922;-73
2022/08/13 06:21:56;;;;;;;1.20;1.20;;;25.30;60.40;;;;;;5068968;28;43973;-73
2022/08/13 06:24:29;;;;;;;1.27;1.27;;;25.20;60.50;;;;;;5069321;28;44002;-74
2022/08/13 06:27:04;;;;;;;1.13;1.13;;;25.20;61.10;;;;;;5069728;28;43998;-74
2022/08/13 06:29:41;;;;;;;1.10;1.10;;;25.20;61.30;;;;;;5067632;28;45781;-73
2022/08/13 06:32:17;;;;;;;1.30;1.30;;;25.10;61.40;;;;;;5067593;28;45078;-72
2022/08/13 06:35:09;;;;;;;1.00;1.00;;;25.10;61.30;;;;;;5069613;28;44054;-73
2022/08/13 06:37:41;;;;;;;1.10;1.10;;;25.10;61.50;;;;;;5068158;28;44309;-72
2022/08/13 06:40:21;;;;;;;1.03;1.03;;;25.10;61.30;;;;;;5068366;28;45046;-73
2022/08/13 06:43:01;;;;;;;1.10;1.10;;;25.20;60.80;;;;;;5068953;28;43979;-72
2022/08/13 06:45:30;;;;;;;1.20;1.20;;;25.30;60.20;;;;;;5069071;28;44206;-74
2022/08/13 06:48:01;;;;;;;1.13;1.13;;;25.50;59.60;;;;;;5069643;28;43989;-74
2022/08/13 06:50:34;;;;;;;1.10;1.10;;;25.50;59.40;;;;;;5069059;28;43660;-74
2022/08/13 06:53:13;;;;;;;1.10;1.10;;;25.50;59.40;;;;;;5068738;28;43956;-74
2022/08/13 06:56:01;;;;;;;1.27;1.27;;;25.40;59.80;;;;;;5068750;28;43942;-74
2022/08/13 06:58:50;;;;;;;1.00;1.00;;;25.30;59.90;;;;;;5069309;28;43911;-74
2022/08/13 07:01:24;;;;;;;1.03;1.03;;;25.30;60.20;;;;;;5068745;28;43975;-73
2022/08/13 07:03:53;;;;;;;1.17;1.17;;;25.20;60.40;;;;;;5067783;28;43987;-73
2022/08/13 07:06:29;;;;;;;1.10;1.10;;;25.20;61.00;;;;;;5060520;28;43382;-73
2022/08/13 07:08:58;;;;;;;1.10;1.10;;;25.20;60.80;;;;;;5062753;28;43455;-73
2022/08/13 07:11:27;;;;;;;1.00;1.00;;;25.10;60.90;;;;;;5062284;28;43672;-73
2022/08/13 07:14:06;;;;;;;1.20;1.20;;;25.10;61.10;;;;;;5067003;28;45713;-74
2022/08/13 07:16:41;;;;;;;1.80;1.10;;;25.10;61.30;;;;;;5068559;28;44002;-74
2022/08/13 07:19:10;;;;;;;1.20;1.20;;;25.00;61.40;;;;;;5067312;28;43951;-73
2022/08/13 07:21:40;;;;;;;1.30;1.30;;;25.10;60.80;;;;;;5068502;28;43925;-72
2022/08/13 07:24:10;;;;;;;3.90;1.30;;;25.20;60.10;;;;;;5066661;28;44587;-74
2022/08/13 07:26:59;;;;;;;2.20;1.10;;;25.30;59.50;;;;;;5068467;28;43989;-73
2022/08/13 07:29:27;;;;;;;1.10;1.10;;;25.40;59.60;;;;;;5068697;28;44058;-73
2022/08/13 07:31:56;;;;;;;1.30;1.30;;;25.50;59.20;;;;;;5068410;28;43595;-74
2022/08/13 07:34:32;;;;;;;1.23;1.23;;;25.40;59.30;;;;;;5068014;28;44008;-74
2022/08/13 07:37:04;;;;;;;1.10;1.10;;;25.30;59.90;;;;;;5068185;28;43801;-74
2022/08/13 07:39:34;;;;;;;1.33;1.20;;;25.30;60.10;;;;;;5068943;28;43969;-74
2022/08/13 07:42:18;;;;;;;1.10;1.10;;;25.20;60.00;;;;;;5067548;28;44066;-73
2022/08/13 07:44:54;;;;;;;1.20;1.20;;;25.20;60.40;;;;;;5068097;28;44014;-73
2022/08/13 07:47:43;;;;;;;1.20;1.20;;;25.10;60.80;;;;;;5068567;28;43856;-73
2022/08/13 07:50:32;;;;;;;1.00;1.00;;;25.10;61.10;;;;;;5067094;28;43955;-73
2022/08/13 07:53:02;;;;;;;1.47;1.10;;;25.10;60.90;;;;;;5067680;28;43937;-72
2022/08/13 07:55:30;;;;;;;1.27;1.27;;;25.10;60.90;;;;;;5067910;28;44039;-74
2022/08/13 07:58:19;;;;;;;1.03;1.03;;;25.00;61.60;;;;;;5068030;28;43980;-74
2022/08/13 08:00:47;;;;;;;1.10;1.10;;;25.10;61.10;;;;;;5066851;28;43968;-73
2022/08/13 08:03:15;;;;;;;1.00;1.00;;;25.10;60.30;;;;;;5067770;28;43868;-73
2022/08/13 08:05:47;;;;;;;1.10;1.10;;;25.20;60.00;;;;;;5066220;28;44462;-74
2022/08/13 08:08:20;;;;;;;1.00;1.00;;;25.30;59.20;;;;;;5068018;28;43582;-73
2022/08/13 08:10:55;;;;;;;0.90;0.90;;;25.40;59.10;;;;;;5068159;28;43397;-74
2022/08/13 08:13:24;;;;;;;1.10;1.10;;;25.40;58.70;;;;;;5067464;28;43591;-73
2022/08/13 08:15:55;;;;;;;1.60;1.10;;;25.30;59.40;;;;;;5067216;28;44113;-74
2022/08/13 08:18:32;;;;;;;1.20;1.20;;;25.30;59.50;;;;;;5067731;28;43345;-74
2022/08/13 08:21:23;;;;;;;1.10;1.10;;;25.20;59.10;;;;;;5068189;28;43962;-72
2022/08/13 08:24:16;;;;;;;1.10;1.10;;;25.20;58.50;;;;;;5067377;28;44067;-74
2022/08/13 08:26:59;;;;;;;1.00;1.00;;;25.10;59.90;;;;;;5067325;28;44036;-73
2022/08/13 08:29:27;;;;;;;1.10;1.10;;;25.10;59.80;;;;;;5067552;28;44113;-74
2022/08/13 08:32:04;;;;;;;1.03;1.03;;;25.10;60.00;;;;;;5067745;28;43935;-74
2022/08/13 08:34:37;;;;;;;1.17;1.17;;;25.00;59.40;;;;;;5065824;28;45589;-73
2022/08/13 08:37:05;;;;;;;1.30;1.30;;;25.00;61.00;;;;;;5067262;28;44018;-74
2022/08/13 08:42:40;;;;;;;1.13;1.13;;;25.10;60.00;;;;;;5067482;28;43897;-74
2022/08/13 08:45:29;;;;;;;1.17;1.17;;;25.10;59.60;;;;;;5065642;28;44149;-73
2022/08/13 08:48:17;;;;;;;1.10;1.10;;;25.30;59.50;;;;;;5066983;28;44042;-74
2022/08/13 08:50:54;;;;;;;1.13;1.13;;;25.40;59.30;;;;;;5065819;28;44091;-74
2022/08/13 08:53:23;;;;;;;1.07;1.07;;;25.40;59.30;;;;;;5067311;28;44055;-74
2022/08/13 08:56:16;;;;;;;1.10;1.10;;;25.30;58.60;;;;;;5066847;28;44985;-73
2022/08/13 08:58:45;;;;;;;1.10;1.10;;;25.30;59.60;;;;;;5067043;28;43998;-73
2022/08/13 09:01:13;;;;;;;1.00;1.00;;;25.20;59.70;;;;;;5066979;28;43971;-73
2022/08/13 09:03:46;;;;;;;1.07;1.07;;;25.20;59.80;;;;;;5067113;28;43553;-73
2022/08/13 09:06:26;;;;;;;1.10;1.10;;;25.10;60.00;;;;;;5065299;28;46341;-73
2022/08/13 09:09:14;;;;;;;1.20;1.20;;;25.10;60.10;;;;;;5066849;28;44317;-72
2022/08/13 09:11:48;;;;;;;1.10;1.10;;;25.10;60.30;;;;;;5066906;28;44026;-73
2022/08/13 09:14:25;;;;;;;1.20;1.20;;;25.10;60.00;;;;;;5067128;28;44027;-74
2022/08/13 09:16:54;;;;;;;1.17;1.17;;;25.00;59.20;;;;;;5066206;28;43935;-72
2022/08/13 09:19:23;;;;;;;1.23;1.13;;;25.00;60.30;;;;;;5066729;28;43939;-74
2022/08/13 09:22:15;;;;;;;1.17;1.17;;;25.00;60.90;;;;;;5066753;28;43383;-73
2022/08/13 09:24:48;;;;;;;1.10;1.10;;;25.10;60.20;;;;;;5067128;28;43459;-74
2022/08/13 09:27:18;;;;;;;1.30;1.30;;;25.20;59.80;;;;;;5067630;28;45113;-74
2022/08/13 09:29:50;;;;;;;1.20;1.20;;;25.30;59.00;;;;;;5070057;28;44049;-73
2022/08/13 09:32:29;;;;;;;1.27;1.27;;;25.40;59.10;;;;;;5070440;28;44046;-73
2022/08/13 09:35:00;;;;;;;1.40;1.30;;;25.30;58.80;;;;;;5070548;28;43919;-73
2022/08/13 09:37:30;;;;;;;2.30;1.33;;;25.30;59.50;;;;;;5069299;28;43618;-75
2022/08/13 09:40:18;;;;;;;1.60;1.50;;;25.30;59.80;;;;;;5064067;28;43813;-72
2022/08/13 09:43:08;;;;;;;1.60;1.60;;;25.20;59.80;;;;;;5068805;28;43351;-74
2022/08/13 09:45:39;;;;;;;1.80;1.70;;;25.20;59.00;;;;;;5070583;28;43943;-73
2022/08/13 09:48:15;;;;;;;4.20;1.80;;;25.10;60.00;;;;;;5069973;28;43820;-72
2022/08/13 09:51:04;;;;;;;1.80;1.70;;;25.10;60.60;;;;;;5069959;28;44034;-73
2022/08/13 09:53:46;;;;;;;1.87;1.80;;;25.10;60.50;;;;;;5068305;28;43928;-74
2022/08/13 09:56:18;;;;;;;2.73;1.70;;;25.10;60.40;;;;;;5070096;28;43948;-73
2022/08/13 09:58:50;;;;;;;2.37;1.93;;;25.00;60.40;;;;;;5069711;28;43940;-73
2022/08/13 10:01:23;;;;;;;1.90;1.70;;;25.00;61.20;;;;;;5069664;28;43909;-73
2022/08/13 10:04:17;;;;;;;3.50;1.80;;;25.00;61.00;;;;;;5062980;28;43423;-73
2022/08/13 10:06:46;;;;;;;3.63;2.03;;;25.10;60.20;;;;;;5070072;28;43912;-73
2022/08/13 10:09:26;;;;;;;4.27;1.80;;;25.20;60.10;;;;;;5067841;28;45367;-74
2022/08/13 10:12:00;;;;;;;4.82;2.10;;;25.30;59.50;;;;;;5067906;28;44610;-73
2022/08/13 10:14:49;;;;;;;4.27;2.23;;;25.40;59.60;;;;;;5069512;28;44033;-74
2022/08/13 10:17:25;;;;;;;8.43;2.30;;;25.40;59.60;;;;;;5068223;28;43914;-74
2022/08/13 10:20:15;;;;;;;10.97;2.20;;;25.30;59.50;;;;;;5069316;28;44236;-73
2022/08/13 10:22:43;;;;;;;2.33;2.10;;;25.30;58.30;;;;;;5069272;28;44010;-72
2022/08/13 10:25:12;;;;;;;8.90;2.20;;;25.30;58.00;;;;;;5069237;28;43995;-72
2022/08/13 10:27:40;;;;;;;2.23;2.10;;;25.30;57.80;;;;;;5068253;28;43974;-73
2022/08/13 10:30:18;;;;;;;4.20;2.13;;;25.40;58.80;;;;;;5069076;28;43903;-73
2022/08/13 10:33:06;;;;;;;2.10;2.00;;;25.30;59.20;;;;;;5065466;28;43980;-73
2022/08/13 10:35:35;;;;;;;6.57;2.40;;;25.30;58.80;;;;;;5067902;28;44020;-73
2022/08/13 10:38:14;;;;;;;17.30;3.00;;;25.30;58.00;;;;;;5068784;28;43367;-74
2022/08/13 10:40:45;;;;;;;6.90;2.50;;;25.40;57.40;;;;;;5066874;28;45560;-73
2022/08/13 10:43:14;;;;;;;28.97;3.87;;;25.50;57.30;;;;;;5069065;28;44095;-74
2022/08/13 10:45:55;;;;;;;23.73;3.43;;;25.60;56.90;;;;;;5067589;28;44181;-74
2022/08/13 10:48:25;;;;;;;33.60;3.73;;;25.60;56.20;;;;;;5067967;28;44002;-73
2022/08/13 10:50:53;;;;;;;37.00;3.60;;;25.60;57.20;;;;;;5068945;28;43856;-73
2022/08/13 10:56:10;;;;;;;17.47;3.43;;;25.50;55.10;;;;;;5068631;28;44080;-72
2022/08/13 10:58:39;;;;;;;18.83;3.40;;;25.40;57.30;;;;;;5069534;28;43896;-74
2022/08/13 11:01:22;;;;;;;19.70;3.67;;;25.40;58.30;;;;;;5068821;28;43808;-74
2022/08/13 11:03:51;;;;;;;15.77;2.83;;;25.30;58.00;;;;;;5068629;28;43427;-72
2022/08/13 11:06:34;;;;;;;15.43;2.80;;;25.30;57.50;;;;;;5066910;28;43900;-73
2022/08/13 11:09:04;;;;;;;6.83;2.73;;;25.30;58.30;;;;;;5069012;28;44007;-72
2022/08/13 11:11:52;;;;;;;13.27;2.93;;;25.30;58.70;;;;;;5067054;28;45739;-73
2022/08/13 11:14:22;;;;;;;14.03;3.47;;;25.20;58.50;;;;;;5068772;28;43737;-72
2022/08/13 11:17:04;;;;;;;8.70;3.17;;;25.20;58.60;;;;;;5068504;28;43363;-73
2022/08/13 11:19:45;;;;;;;11.00;2.67;;;25.30;57.90;;;;;;5068277;28;43954;-73
2022/08/13 11:22:19;;;;;;;13.83;2.70;;;25.30;58.00;;;;;;5067770;28;44012;-73
2022/08/13 11:24:55;;;;;;;14.40;2.93;;;25.40;55.90;;;;;;5067752;28;44006;-74
2022/08/13 11:27:24;;;;;;;8.90;2.50;;;25.50;55.90;;;;;;5066175;28;43952;-73
2022/08/13 11:30:13;;;;;;;9.77;2.40;;;25.50;56.30;;;;;;5068089;28;43832;-73
2022/08/13 11:33:02;;;;;;;5.90;2.70;;;25.50;57.40;;;;;;5067621;28;43987;-74
2022/08/13 11:35:35;;;;;;;4.73;2.20;;;25.40;56.40;;;;;;5065854;28;44639;-73
2022/08/13 11:38:08;;;;;;;9.20;2.60;;;25.40;56.60;;;;;;5068034;28;44035;-73
2022/08/13 11:40:36;;;;;;;3.63;1.90;;;25.40;57.60;;;;;;5067789;28;44012;-73
2022/08/13 11:43:06;;;;;;;2.30;2.03;;;25.30;57.80;;;;;;5067846;28;44062;-73
2022/08/13 11:45:39;;;;;;;7.40;2.30;;;25.30;58.00;;;;;;5065726;28;44726;-74
2022/08/13 11:48:15;;;;;;;2.43;1.83;;;25.30;57.90;;;;;;5066029;28;44504;-74
2022/08/13 11:50:48;;;;;;;3.37;2.13;;;25.30;57.50;;;;;;5067541;28;43953;-74
2022/08/13 11:53:17;;;;;;;2.87;2.00;;;25.40;57.20;;;;;;5065869;28;45756;-73
2022/08/13 11:55:51;;;;;;;4.03;2.03;;;25.60;57.10;;;;;;5065872;28;44466;-74
2022/08/13 11:58:28;;;;;;;4.37;1.93;;;25.60;57.20;;;;;;5067202;28;43896;-73
2022/08/13 12:01:18;;;;;;;2.37;1.97;;;25.60;57.30;;;;;;5066286;28;44141;-73
2022/08/13 12:03:54;;;;;;;1.93;1.90;;;25.50;57.70;;;;;;5065731;28;46318;-74
2022/08/13 12:06:42;;;;;;;2.03;1.93;;;25.40;58.00;;;;;;5066645;28;43492;-73
2022/08/13 12:09:17;;;;;;;2.03;1.80;;;25.40;58.00;;;;;;5067158;28;43996;-73
2022/08/13 12:12:05;;;;;;;2.13;1.70;;;25.30;57.70;;;;;;5067834;28;44132;-74
2022/08/13 12:14:38;;;;;;;2.10;2.00;;;25.30;58.60;;;;;;5067098;28;44999;-74
2022/08/13 12:17:06;;;;;;;1.87;1.70;;;25.30;58.30;;;;;;5065361;28;44494;-73
2022/08/13 12:19:36;;;;;;;1.80;1.70;;;25.30;58.30;;;;;;5067129;28;43630;-74
2022/08/13 12:22:05;;;;;;;2.80;1.90;;;25.40;58.00;;;;;;5061206;28;43953;-74
2022/08/13 12:24:34;;;;;;;1.93;1.90;;;25.50;57.70;;;;;;5060730;28;45441;-73
2022/08/13 12:27:03;;;;;;;1.90;1.80;;;25.50;57.00;;;;;;5059503;28;46023;-75
2022/08/13 12:29:35;;;;;;;1.97;1.90;;;25.50;57.90;;;;;;5067311;28;43391;-74
2022/08/13 12:32:14;;;;;;;1.77;1.60;;;25.40;58.30;;;;;;5067471;28;44068;-73
2022/08/13 12:34:46;;;;;;;1.63;1.53;;;25.40;58.20;;;;;;5067005;28;44791;-73
2022/08/13 12:37:21;;;;;;;2.13;1.90;;;25.30;58.40;;;;;;5066412;28;44405;-74
2022/08/13 12:39:51;;;;;;;1.77;1.67;;;25.30;58.30;;;;;;5065406;28;44002;-74
2022/08/13 12:42:21;;;;;;;2.03;1.90;;;25.30;59.10;;;;;;5066702;28;43960;-74
2022/08/13 12:44:55;;;;;;;1.50;1.50;;;25.20;59.00;;;;;;5064898;28;46795;-74
2022/08/13 12:47:44;;;;;;;2.37;1.60;;;25.30;59.20;;;;;;5066388;28;43990;-74
2022/08/13 12:50:18;;;;;;;1.83;1.73;;;25.40;58.70;;;;;;5065174;28;43971;-73
2022/08/13 12:52:49;;;;;;;1.70;1.60;;;25.50;58.50;;;;;;5066807;28;43965;-73
2022/08/13 12:55:17;;;;;;;1.63;1.63;;;25.50;58.50;;;;;;5066203;28;43986;-73
2022/08/13 12:58:13;;;;;;;1.70;1.70;;;25.50;58.40;;;;;;5066119;28;44027;-73
2022/08/13 13:00:42;;;;;;;2.00;1.80;;;25.50;58.70;;;;;;5064981;28;43853;-74
2022/08/13 13:03:11;;;;;;;1.60;1.60;;;25.40;59.00;;;;;;5064537;28;43913;-73
2022/08/13 13:05:42;;;;;;;1.50;1.50;;;25.40;59.00;;;;;;5059747;28;44121;-73
2022/08/13 13:08:18;;;;;;;1.60;1.60;;;25.30;58.90;;;;;;5066514;28;44019;-73
2022/08/13 13:11:02;;;;;;;2.10;1.90;;;25.30;59.10;;;;;;5066466;28;43928;-74
2022/08/13 13:13:40;;;;;;;2.00;1.83;;;25.30;60.30;;;;;;5065063;28;44227;-75
2022/08/13 13:16:26;;;;;;;1.60;1.60;;;25.30;59.00;;;;;;5065892;28;43898;-74
2022/08/13 13:19:04;;;;;;;1.53;1.53;;;25.30;59.20;;;;;;5065910;28;44086;-74
2022/08/13 13:21:41;;;;;;;1.40;1.40;;;25.50;58.90;;;;;;5066087;28;44109;-73
2022/08/13 13:24:09;;;;;;;2.07;1.97;;;25.50;58.80;;;;;;5065001;28;43952;-74
2022/08/13 13:26:50;;;;;;;1.57;1.47;;;25.50;58.60;;;;;;5065800;28;44113;-74
2022/08/13 13:29:30;;;;;;;1.60;1.60;;;25.50;58.80;;;;;;5065792;28;44141;-74
2022/08/13 13:32:07;;;;;;;1.40;1.40;;;25.40;59.40;;;;;;5060367;28;43901;-73
2022/08/13 13:34:56;;;;;;;1.50;1.50;;;25.40;59.20;;;;;;5066344;28;44017;-73
2022/08/13 13:37:28;;;;;;;1.60;1.60;;;25.30;59.20;;;;;;5065659;28;46013;-73
2022/08/13 13:40:16;;;;;;;1.30;1.30;;;25.30;59.40;;;;;;5065815;28;43916;-74
2022/08/13 13:42:45;;;;;;;1.87;1.77;;;25.20;60.00;;;;;;5065937;28;43968;-74
2022/08/13 13:45:33;;;;;;;2.23;1.40;;;25.30;59.90;;;;;;5065892;28;43836;-72
2022/08/13 13:48:19;;;;;;;1.60;1.50;;;25.40;59.50;;;;;;5065623;28;43880;-74
2022/08/13 13:50:47;;;;;;;1.50;1.40;;;25.50;59.20;;;;;;5065709;28;43872;-73
2022/08/13 13:53:17;;;;;;;1.40;1.40;;;25.50;59.70;;;;;;5065637;28;43916;-72